KSUW/SUW METAR and TAF weather

Enter ICAO airport designator
Station Type Date Time Source
KSUW METAR 2020/01/20 13:15 UTC NOAA

KSUW 201315Z AUTO 00000KT 7SM CLR M19/M20 A3064 RMK AO2 T11881203


Station Type Date Time Source
KSUW Decoded METAR 2020/01/20 13:15 UTC NOAA

Superior, Richard I. Bong Airport, WI, United States (KSUW) 46-41-23N 092-05-41W
Jan 20, 2020 - 08:15 AM EST / 2020.01.20 1315 UTC
Wind: Calm:0
Visibility: 7 mile(s):0
Sky conditions: clear
Temperature: -1.8 F (-18.8 C)
Dew Point: -4.5 F (-20.3 C)
Relative Humidity: 87%
Pressure (altimeter): 30.64 in. Hg (1037 hPa)
ob: KSUW 201315Z AUTO 00000KT 7SM CLR M19/M20 A3064 RMK AO2 T11881203
cycle: 13

Station Type Date Time Source
KSUW TAF UTC NOAA

Error!

Example: see airport list